Time;durP1;ratioP1;P1;durP2;ratioP2;P2;SDS_P1;SDS_P2;PMS_P1;PMS_P2;Temp;Humidity;BMP_temperature;BMP_pressure;BME280_temperature;BME280_humidity;BME280_pressure;Samples;Min_cycle;Max_cycle;Signal;HPM_P1;HPM_P2
2022/01/04 00:02:01;;;;;;;22.45;3.88;;;8.70;98.60;;;;;;5017219;28;37682;-63
2022/01/04 00:04:29;;;;;;;24.35;3.88;;;8.70;98.60;;;;;;5014222;28;37543;-62
2022/01/04 00:06:58;;;;;;;23.92;3.92;;;8.70;98.70;;;;;;5015974;28;37040;-62
2022/01/04 00:09:25;;;;;;;15.10;3.35;;;8.60;98.60;;;;;;5015767;28;37280;-63
2022/01/04 00:13:21;;;;;;;21.50;3.25;;;8.60;98.70;;;;;;5017024;28;37553;-62
2022/01/04 00:14:47;;;;;;;25.30;3.80;;;8.60;98.80;;;;;;5016336;28;38446;-63
2022/01/04 00:17:14;;;;;;;20.42;3.85;;;8.60;98.80;;;;;;5016851;28;37862;-63
2022/01/04 00:19:42;;;;;;;25.67;3.95;;;8.60;98.80;;;;;;5015183;28;38022;-62
2022/01/04 00:22:10;;;;;;;23.02;3.65;;;8.60;98.80;;;;;;5015869;28;37855;-62
2022/01/04 00:24:38;;;;;;;26.63;4.68;;;8.50;98.80;;;;;;5015572;28;36227;-62
2022/01/04 00:27:06;;;;;;;20.83;3.30;;;8.50;98.80;;;;;;5015449;28;36412;-62
2022/01/04 00:29:33;;;;;;;19.00;3.38;;;8.50;98.90;;;;;;5015775;28;39699;-62
2022/01/04 00:32:00;;;;;;;23.08;3.88;;;8.50;98.90;;;;;;5016000;28;38977;-62
2022/01/04 00:34:28;;;;;;;26.38;4.78;;;8.50;99.00;;;;;;5015903;28;37269;-62
2022/01/04 00:36:55;;;;;;;28.33;3.55;;;8.50;99.00;;;;;;5016771;28;37637;-62
2022/01/04 00:39:24;;;;;;;22.50;4.50;;;8.50;99.00;;;;;;5016337;28;38063;-62
2022/01/04 00:41:51;;;;;;;23.00;4.15;;;8.50;99.00;;;;;;5017285;28;38970;-62
2022/01/04 00:44:18;;;;;;;19.88;5.55;;;8.50;99.10;;;;;;5019513;28;37445;-62
2022/01/04 00:46:46;;;;;;;22.60;4.63;;;8.50;99.10;;;;;;5019392;28;35271;-62
2022/01/04 00:49:12;;;;;;;22.48;3.90;;;8.50;99.20;;;;;;5020718;28;38771;-62
2022/01/04 00:51:41;;;;;;;17.55;4.10;;;8.50;99.20;;;;;;5020832;28;39167;-62
2022/01/04 00:54:09;;;;;;;15.63;4.10;;;8.80;99.40;;;;;;5020454;28;38217;-62
2022/01/04 00:56:38;;;;;;;24.30;4.82;;;8.50;99.30;;;;;;5021026;28;37196;-62
2022/01/04 00:59:06;;;;;;;24.55;4.45;;;8.50;99.30;;;;;;5021169;28;38019;-62
2022/01/04 01:01:36;;;;;;;23.52;4.47;;;8.50;99.30;;;;;;5021002;28;37413;-62
2022/01/04 01:04:04;;;;;;;26.98;5.40;;;8.50;99.40;;;;;;5020787;28;38386;-62
2022/01/04 01:06:32;;;;;;;25.35;5.50;;;8.60;99.40;;;;;;5020060;28;37197;-62
2022/01/04 01:08:59;;;;;;;26.63;5.15;;;8.50;99.50;;;;;;5020326;28;36412;-62
2022/01/04 01:11:27;;;;;;;26.00;4.65;;;8.60;99.40;;;;;;5019534;28;36620;-62
2022/01/04 01:13:56;;;;;;;15.13;4.78;;;8.60;99.50;;;;;;5020188;28;37920;-62
2022/01/04 01:16:23;;;;;;;25.67;4.70;;;8.60;99.40;;;;;;5020801;28;37292;-62
2022/01/04 01:18:51;;;;;;;19.35;5.57;;;8.60;99.40;;;;;;5019046;28;38887;-63
2022/01/04 01:21:18;;;;;;;26.92;5.15;;;8.60;99.50;;;;;;5020066;28;37978;-63
2022/01/04 01:23:45;;;;;;;25.02;5.63;;;8.60;99.50;;;;;;5019452;28;37460;-63
2022/01/04 01:26:13;;;;;;;24.27;4.68;;;8.60;99.50;;;;;;5020336;28;36616;-62
2022/01/04 01:28:42;;;;;;;16.48;4.90;;;8.60;99.60;;;;;;5020114;28;39162;-62
2022/01/04 01:31:11;;;;;;;21.30;5.90;;;8.60;99.60;;;;;;5020337;28;36670;-62
2022/01/04 01:33:39;;;;;;;25.67;5.25;;;8.70;99.60;;;;;;5019830;28;37523;-62
2022/01/04 01:36:06;;;;;;;22.52;4.45;;;8.70;99.70;;;;;;5019869;28;35273;-62
2022/01/04 01:38:34;;;;;;;21.88;4.25;;;8.70;99.70;;;;;;5020083;28;37052;-62
2022/01/04 01:41:01;;;;;;;22.25;4.80;;;8.70;99.60;;;;;;5019556;28;39003;-62
2022/01/04 01:43:29;;;;;;;30.33;5.38;;;8.70;99.60;;;;;;5020095;28;36161;-62
2022/01/04 01:45:57;;;;;;;20.98;5.00;;;8.70;99.70;;;;;;5019609;28;36124;-62
2022/01/04 01:48:26;;;;;;;19.80;4.70;;;8.80;99.60;;;;;;5019636;28;36933;-62
2022/01/04 01:50:54;;;;;;;21.60;4.38;;;8.80;99.60;;;;;;5020403;28;36337;-62
2022/01/04 01:53:22;;;;;;;28.85;4.97;;;8.70;99.60;;;;;;5019558;28;38264;-62
2022/01/04 01:55:50;;;;;;;24.63;4.55;;;8.70;99.60;;;;;;5020164;28;34778;-62
2022/01/04 01:58:17;;;;;;;22.80;4.63;;;8.70;99.80;;;;;;5019544;28;38059;-62
2022/01/04 02:00:45;;;;;;;22.38;4.80;;;8.70;99.60;;;;;;5019527;28;36584;-62
2022/01/04 02:03:12;;;;;;;33.03;6.07;;;8.70;99.60;;;;;;5019340;28;38136;-62
2022/01/04 02:05:41;;;;;;;24.27;4.75;;;8.70;99.50;;;;;;5018679;28;37762;-62
2022/01/04 02:08:10;;;;;;;17.95;4.43;;;8.70;99.60;;;;;;5016245;28;37552;-62
2022/01/04 02:10:39;;;;;;;31.83;5.10;;;8.60;99.50;;;;;;5017438;28;38014;-62
2022/01/04 02:13:06;;;;;;;17.58;4.80;;;8.60;99.50;;;;;;5018334;28;39669;-63
2022/01/04 02:15:35;;;;;;;19.42;4.20;;;8.60;99.50;;;;;;5017699;28;36737;-63
2022/01/04 02:18:02;;;;;;;26.60;5.03;;;8.60;99.50;;;;;;5017340;28;39626;-62
2022/01/04 02:20:31;;;;;;;29.60;5.57;;;8.60;99.50;;;;;;5019901;28;36448;-63
2022/01/04 02:22:58;;;;;;;27.27;4.90;;;8.50;99.60;;;;;;5018409;28;37287;-62
2022/01/04 02:25:25;;;;;;;27.35;4.55;;;8.50;99.60;;;;;;5019587;28;36908;-62
2022/01/04 02:27:53;;;;;;;29.42;5.18;;;8.50;99.60;;;;;;5021748;28;38342;-62
2022/01/04 02:30:21;;;;;;;18.52;4.18;;;8.50;99.60;;;;;;5023514;28;36516;-62
2022/01/04 02:32:49;;;;;;;27.50;4.88;;;8.60;99.70;;;;;;5022798;28;38550;-62
2022/01/04 02:35:18;;;;;;;25.67;4.40;;;8.60;99.60;;;;;;5023023;28;36700;-62
2022/01/04 02:37:47;;;;;;;22.75;4.05;;;8.60;99.60;;;;;;5022686;28;36218;-62
2022/01/04 02:40:15;;;;;;;19.05;4.22;;;8.60;99.60;;;;;;5022474;28;36497;-62
2022/01/04 02:42:43;;;;;;;32.88;5.75;;;8.60;99.70;;;;;;5021422;28;37785;-62
2022/01/04 02:45:11;;;;;;;36.20;7.35;;;8.60;99.70;;;;;;5022037;28;37842;-62
2022/01/04 02:47:39;;;;;;;30.83;5.65;;;8.70;99.70;;;;;;5022519;28;39140;-62
2022/01/04 02:50:07;;;;;;;21.63;4.82;;;8.70;99.80;;;;;;5022607;28;37961;-62
2022/01/04 02:52:35;;;;;;;23.48;5.57;;;8.70;99.70;;;;;;5022621;28;38750;-62
2022/01/04 02:55:05;;;;;;;23.92;4.63;;;8.70;99.70;;;;;;5022516;28;36069;-62
2022/01/04 02:57:33;;;;;;;24.90;5.35;;;8.70;99.80;;;;;;5021425;28;38088;-62
2022/01/04 03:00:00;;;;;;;25.98;4.68;;;8.70;99.80;;;;;;5022194;28;37789;-62
2022/01/04 03:02:28;;;;;;;29.08;4.25;;;8.80;99.80;;;;;;5022448;28;36278;-62
2022/01/04 03:04:55;;;;;;;23.60;4.65;;;8.80;99.70;;;;;;5020744;28;36431;-62
2022/01/04 03:07:23;;;;;;;28.85;5.43;;;8.80;99.70;;;;;;5021512;28;38367;-62
2022/01/04 03:09:50;;;;;;;23.25;4.80;;;8.80;99.70;;;;;;5022130;28;37545;-62
2022/01/04 03:12:18;;;;;;;23.05;4.68;;;8.80;99.70;;;;;;5022430;28;37120;-62
2022/01/04 03:14:46;;;;;;;31.38;5.75;;;8.80;99.70;;;;;;5021604;28;36468;-62
2022/01/04 03:17:13;;;;;;;24.02;4.70;;;8.80;99.70;;;;;;5022423;28;36973;-62
2022/01/04 03:19:40;;;;;;;25.15;5.10;;;8.80;99.70;;;;;;5022250;28;38088;-62
2022/01/04 03:22:08;;;;;;;26.98;4.40;;;8.80;99.70;;;;;;5022125;28;37462;-62
2022/01/04 03:24:35;;;;;;;22.80;5.15;;;8.80;99.70;;;;;;5021723;28;35396;-62
2022/01/04 03:27:03;;;;;;;24.75;4.85;;;8.80;99.70;;;;;;5022035;28;40517;-62
2022/01/04 03:29:31;;;;;;;22.60;4.32;;;8.80;99.70;;;;;;5021316;28;37823;-62
2022/01/04 03:31:59;;;;;;;26.55;5.10;;;8.80;99.70;;;;;;5022244;28;38375;-62
2022/01/04 03:34:26;;;;;;;23.90;5.30;;;8.80;99.70;;;;;;5021225;28;38110;-62
2022/01/04 03:36:54;;;;;;;23.98;4.85;;;8.80;99.70;;;;;;5022308;28;39483;-62
2022/01/04 03:39:21;;;;;;;16.70;4.07;;;8.90;99.70;;;;;;5020529;28;39286;-62
2022/01/04 03:41:50;;;;;;;26.95;4.95;;;8.90;99.70;;;;;;5021892;28;36270;-62
2022/01/04 03:44:20;;;;;;;25.45;5.03;;;8.80;99.70;;;;;;5021816;28;35323;-62
2022/01/04 03:46:50;;;;;;;23.40;4.70;;;8.80;99.70;;;;;;5021941;28;37567;-62
2022/01/04 03:49:18;;;;;;;27.02;4.85;;;8.90;99.70;;;;;;5021572;28;37465;-62
2022/01/04 03:51:45;;;;;;;19.52;5.03;;;8.90;99.60;;;;;;5022175;28;36836;-62
2022/01/04 03:54:13;;;;;;;24.02;4.32;;;8.90;99.70;;;;;;5022239;28;36307;-62
2022/01/04 03:56:40;;;;;;;33.00;5.15;;;8.90;99.70;;;;;;5022143;28;39264;-62
2022/01/04 03:59:08;;;;;;;25.92;4.68;;;8.90;99.80;;;;;;5021256;28;37483;-62
2022/01/04 04:01:35;;;;;;;24.30;5.35;;;8.90;99.70;;;;;;5021352;28;37265;-62
2022/01/04 04:04:04;;;;;;;32.80;5.43;;;8.90;99.60;;;;;;5021402;28;35208;-62
2022/01/04 04:06:32;;;;;;;28.48;4.65;;;8.90;99.60;;;;;;5021155;28;20133;-62
2022/01/04 04:09:00;;;;;;;30.33;4.78;;;8.90;99.70;;;;;;5021224;28;38223;-62
2022/01/04 04:11:27;;;;;;;27.05;5.43;;;8.90;99.70;;;;;;5021347;28;39472;-62
2022/01/04 04:13:55;;;;;;;25.77;4.93;;;8.90;99.70;;;;;;5021081;28;37010;-62
2022/01/04 04:16:22;;;;;;;23.40;5.28;;;9.10;99.70;;;;;;5021528;28;37684;-62
2022/01/04 04:18:50;;;;;;;23.83;6.00;;;8.90;99.60;;;;;;5022011;28;36529;-62
2022/01/04 04:21:19;;;;;;;28.30;5.15;;;8.90;99.60;;;;;;5021552;28;37808;-62
2022/01/04 04:23:46;;;;;;;22.60;4.95;;;8.90;99.60;;;;;;5021441;28;37118;-61
2022/01/04 04:26:13;;;;;;;24.83;5.22;;;8.90;99.80;;;;;;5021782;28;38337;-62
2022/01/04 04:28:40;;;;;;;23.75;4.78;;;8.90;99.60;;;;;;5021418;28;37561;-62
2022/01/04 04:31:08;;;;;;;25.52;4.68;;;8.90;99.60;;;;;;5020759;28;38655;-62
2022/01/04 04:33:35;;;;;;;22.98;5.38;;;8.90;99.70;;;;;;5021022;28;36179;-62
2022/01/04 04:36:03;;;;;;;22.50;5.15;;;8.90;99.70;;;;;;5020770;28;38027;-62
2022/01/04 04:38:32;;;;;;;27.70;4.63;;;8.90;99.70;;;;;;5021107;28;38510;-62
2022/01/04 04:40:59;;;;;;;23.83;4.85;;;8.90;99.70;;;;;;5020439;28;38873;-62
2022/01/04 04:43:26;;;;;;;26.40;5.10;;;8.90;99.70;;;;;;5021110;28;36348;-62
2022/01/04 04:45:54;;;;;;;31.42;5.60;;;8.80;99.70;;;;;;5020863;28;37508;-62
2022/01/04 04:48:21;;;;;;;25.08;5.18;;;8.90;99.80;;;;;;5021269;28;39074;-62
2022/01/04 04:50:49;;;;;;;21.92;5.05;;;8.90;99.80;;;;;;5020240;28;37336;-62
2022/01/04 04:53:16;;;;;;;23.77;5.03;;;8.90;99.80;;;;;;5018664;28;36102;-62
2022/01/04 04:55:45;;;;;;;30.45;5.43;;;8.90;99.80;;;;;;5019004;28;37456;-62
2022/01/04 04:58:12;;;;;;;24.00;5.43;;;8.90;99.80;;;;;;5020836;28;37962;-62
2022/01/04 05:00:40;;;;;;;24.10;4.55;;;8.90;99.80;;;;;;5019811;28;38142;-62
2022/01/04 05:03:07;;;;;;;24.70;5.15;;;8.90;99.80;;;;;;5020248;28;36804;-62
2022/01/04 05:05:34;;;;;;;22.60;6.15;;;8.90;99.90;;;;;;5020663;28;37594;-62
2022/01/04 05:08:02;;;;;;;25.67;5.50;;;8.90;99.90;;;;;;5020716;28;35783;-62
2022/01/04 05:10:29;;;;;;;31.67;6.60;;;8.90;99.90;;;;;;5019876;28;37473;-62
2022/01/04 05:12:58;;;;;;;24.35;5.18;;;8.90;99.90;;;;;;5020243;28;36564;-62
2022/01/04 05:15:25;;;;;;;29.13;5.80;;;8.90;99.90;;;;;;5019831;28;38144;-62
2022/01/04 05:17:52;;;;;;;23.95;6.68;;;8.90;99.90;;;;;;5020689;28;36527;-62
2022/01/04 05:20:20;;;;;;;24.27;5.72;;;8.90;99.90;;;;;;5020709;28;40515;-62
2022/01/04 05:22:47;;;;;;;27.13;5.72;;;8.90;99.90;;;;;;5020626;28;37015;-62
2022/01/04 05:25:14;;;;;;;25.90;5.88;;;8.90;99.90;;;;;;5020073;28;38353;-62
2022/01/04 05:27:42;;;;;;;32.53;5.95;;;8.80;99.90;;;;;;5019580;28;37537;-62
2022/01/04 05:30:12;;;;;;;29.42;6.00;;;8.90;99.90;;;;;;5020261;28;36162;-61
2022/01/04 05:32:39;;;;;;;24.13;4.68;;;8.90;99.90;;;;;;5019545;28;36611;-62
2022/01/04 05:35:07;;;;;;;23.83;6.20;;;8.90;99.90;;;;;;5017741;28;38637;-62
2022/01/04 05:37:34;;;;;;;20.17;5.13;;;8.80;99.90;;;;;;5018312;28;37483;-62
2022/01/04 05:40:02;;;;;;;22.65;5.68;;;8.80;99.90;;;;;;5018869;28;38030;-62
2022/01/04 05:42:29;;;;;;;26.90;5.93;;;8.80;99.90;;;;;;5017956;28;37134;-62
2022/01/04 05:44:56;;;;;;;23.88;5.30;;;8.80;99.90;;;;;;5018825;28;36172;-62
2022/01/04 05:47:25;;;;;;;27.02;6.88;;;8.80;99.90;;;;;;5018801;28;37738;-62
2022/01/04 05:49:53;;;;;;;33.55;7.63;;;8.80;99.90;;;;;;5019530;28;38468;-62
2022/01/04 05:52:20;;;;;;;22.63;6.43;;;8.70;99.90;;;;;;5019812;28;36473;-62
2022/01/04 05:54:49;;;;;;;23.67;6.20;;;8.70;99.90;;;;;;5019526;28;36309;-62
2022/01/04 05:57:16;;;;;;;24.67;6.63;;;8.70;99.90;;;;;;5019885;28;38228;-62
2022/01/04 05:59:44;;;;;;;29.55;6.72;;;8.70;99.90;;;;;;5020391;28;39796;-62
2022/01/04 06:02:11;;;;;;;30.15;7.47;;;8.70;99.90;;;;;;5019302;28;36436;-62
2022/01/04 06:04:40;;;;;;;30.70;6.55;;;8.70;99.90;;;;;;5022924;28;37795;-62
2022/01/04 06:07:07;;;;;;;30.40;7.75;;;8.70;99.90;;;;;;5022684;28;37777;-62
2022/01/04 06:09:42;;;;;;;26.80;6.30;;;8.70;99.90;;;;;;5022200;28;37409;-62
2022/01/04 06:14:52;;;;;;;23.55;6.05;;;8.60;99.90;;;;;;5022258;28;40450;-62
2022/01/04 06:17:22;;;;;;;21.40;5.82;;;8.80;99.90;;;;;;5023337;28;37907;-62
2022/01/04 06:19:51;;;;;;;25.08;6.45;;;8.70;99.90;;;;;;5022275;28;39095;-62
2022/01/04 06:22:18;;;;;;;23.77;7.07;;;8.70;99.90;;;;;;5023310;28;36729;-62
2022/01/04 06:24:45;;;;;;;26.58;5.90;;;8.80;99.90;;;;;;5022954;28;38461;-62
2022/01/04 06:27:13;;;;;;;29.95;6.22;;;8.80;99.90;;;;;;5022149;28;36311;-62
2022/01/04 06:29:40;;;;;;;22.90;5.95;;;8.80;99.90;;;;;;5022667;28;37954;-62
2022/01/04 06:32:08;;;;;;;26.60;5.78;;;8.80;99.90;;;;;;5022772;28;36599;-62
2022/01/04 06:34:36;;;;;;;31.95;7.20;;;8.80;99.90;;;;;;5023421;28;36431;-62
2022/01/04 06:37:07;;;;;;;36.45;7.45;;;8.80;99.90;;;;;;5022607;28;36344;-62
2022/01/04 06:39:34;;;;;;;29.15;6.65;;;8.80;99.90;;;;;;5021349;28;37537;-62
2022/01/04 06:42:02;;;;;;;25.27;5.40;;;8.80;99.90;;;;;;5022347;28;37934;-62
2022/01/04 06:44:29;;;;;;;25.45;5.15;;;8.80;99.90;;;;;;5022500;28;39135;-62
2022/01/04 06:46:57;;;;;;;29.17;6.80;;;8.80;99.90;;;;;;5022528;28;38252;-62
2022/01/04 06:49:24;;;;;;;18.60;4.20;;;8.80;99.90;;;;;;5022607;28;37518;-61
2022/01/04 06:51:52;;;;;;;23.38;5.78;;;8.80;99.90;;;;;;5022546;28;36716;-62
2022/01/04 06:54:21;;;;;;;15.77;4.07;;;8.80;99.90;;;;;;5022549;28;37136;-62
2022/01/04 06:56:49;;;;;;;16.05;3.90;;;8.80;99.90;;;;;;5022443;28;36572;-61
2022/01/04 06:59:17;;;;;;;28.52;4.28;;;8.80;99.90;;;;;;5023153;28;36212;-62
2022/01/04 07:01:45;;;;;;;25.55;4.50;;;8.70;99.90;;;;;;5022297;28;39397;-62
2022/01/04 07:04:13;;;;;;;16.50;4.60;;;8.70;99.90;;;;;;5022004;28;37513;-61
2022/01/04 07:06:40;;;;;;;19.73;4.00;;;8.70;99.90;;;;;;5020533;28;39660;-61
2022/01/04 07:09:08;;;;;;;25.55;4.95;;;8.80;99.90;;;;;;5017483;28;36295;-62
2022/01/04 07:11:38;;;;;;;29.70;5.80;;;8.80;99.90;;;;;;5017803;28;36577;-62
2022/01/04 07:14:06;;;;;;;20.48;4.88;;;8.80;99.90;;;;;;5015761;28;36276;-62
2022/01/04 07:16:33;;;;;;;24.35;5.95;;;8.70;99.90;;;;;;5017475;28;36751;-61
2022/01/04 07:19:01;;;;;;;24.40;4.95;;;8.70;99.90;;;;;;5016588;28;37776;-62
2022/01/04 07:21:28;;;;;;;22.30;4.72;;;8.70;99.90;;;;;;5015607;28;36919;-62
2022/01/04 07:23:56;;;;;;;21.63;4.78;;;8.80;99.90;;;;;;5016443;28;37375;-62
2022/01/04 07:26:24;;;;;;;15.20;4.72;;;8.80;99.90;;;;;;5017636;28;39118;-61
2022/01/04 07:28:53;;;;;;;18.23;4.53;;;8.80;99.90;;;;;;5016519;28;37533;-61
2022/01/04 07:31:20;;;;;;;22.52;4.00;;;8.80;99.90;;;;;;5017622;28;36767;-61
2022/01/04 07:33:48;;;;;;;20.45;4.68;;;8.80;99.90;;;;;;5016824;28;38651;-62
2022/01/04 07:36:16;;;;;;;23.05;4.07;;;8.80;99.90;;;;;;5016855;28;38444;-62
2022/01/04 07:38:44;;;;;;;16.45;4.07;;;8.80;99.90;;;;;;5016417;28;36376;-62
2022/01/04 07:41:12;;;;;;;15.18;4.00;;;8.70;99.90;;;;;;5013907;28;36064;-61
2022/01/04 07:43:39;;;;;;;17.60;4.10;;;8.70;99.90;;;;;;5015159;28;37848;-62
2022/01/04 07:46:08;;;;;;;24.65;4.38;;;8.70;99.90;;;;;;5015102;28;38570;-61
2022/01/04 07:48:35;;;;;;;16.25;3.50;;;8.70;99.90;;;;;;5015503;28;38272;-62
2022/01/04 07:51:03;;;;;;;17.42;4.35;;;8.70;99.90;;;;;;5015463;28;36531;-62
2022/01/04 07:53:31;;;;;;;23.02;3.88;;;8.70;99.90;;;;;;5015761;28;39251;-62
2022/01/04 07:55:58;;;;;;;15.60;3.78;;;8.70;99.90;;;;;;5016355;28;39571;-62
2022/01/04 07:58:26;;;;;;;18.70;5.10;;;8.60;99.90;;;;;;5016714;28;36209;-62
2022/01/04 08:00:53;;;;;;;19.90;4.15;;;8.70;99.90;;;;;;5017350;28;36576;-62
2022/01/04 08:03:23;;;;;;;16.08;3.22;;;8.60;99.90;;;;;;5016104;28;38375;-62
2022/01/04 08:05:50;;;;;;;13.50;4.00;;;8.70;99.90;;;;;;5016043;28;38302;-62
2022/01/04 08:08:18;;;;;;;19.63;3.95;;;8.70;99.90;;;;;;5013569;28;38896;-61
2022/01/04 08:10:45;;;;;;;12.93;3.50;;;8.70;99.90;;;;;;5014935;28;35290;-61
2022/01/04 08:13:12;;;;;;;18.60;4.50;;;8.70;99.90;;;;;;5015390;28;37737;-62
2022/01/04 08:15:40;;;;;;;23.90;3.92;;;8.70;99.90;;;;;;5013858;28;37912;-62
2022/01/04 08:18:07;;;;;;;16.42;4.03;;;8.70;99.90;;;;;;5014230;28;37865;-62
2022/01/04 08:20:36;;;;;;;17.98;3.97;;;8.70;99.90;;;;;;5013985;28;36694;-62
2022/01/04 08:23:04;;;;;;;28.42;4.72;;;8.70;99.90;;;;;;5012346;28;38504;-62
2022/01/04 08:25:31;;;;;;;19.50;4.05;;;8.70;99.90;;;;;;5013432;28;38354;-62
2022/01/04 08:27:59;;;;;;;14.75;3.85;;;8.70;99.90;;;;;;5013550;28;36264;-62
2022/01/04 08:30:26;;;;;;;17.80;4.40;;;8.70;99.90;;;;;;5014381;28;36149;-62
2022/01/04 08:32:54;;;;;;;15.68;4.93;;;8.70;99.90;;;;;;5014030;28;37585;-62
2022/01/04 08:35:22;;;;;;;23.55;5.13;;;8.60;99.90;;;;;;5016235;28;37784;-62
2022/01/04 08:37:51;;;;;;;16.17;4.40;;;8.70;99.90;;;;;;5016467;28;38643;-62
2022/01/04 08:40:18;;;;;;;15.65;4.38;;;8.70;99.90;;;;;;5015724;28;35408;-62
2022/01/04 08:42:45;;;;;;;19.30;4.47;;;8.70;99.90;;;;;;5016476;28;37826;-62
2022/01/04 08:45:13;;;;;;;18.92;5.30;;;8.70;99.90;;;;;;5016205;28;38222;-62
2022/01/04 08:47:41;;;;;;;20.55;4.88;;;8.70;99.90;;;;;;5015708;28;36183;-62
2022/01/04 08:50:11;;;;;;;12.15;2.53;;;8.60;99.90;;;;;;5016668;28;36034;-62
2022/01/04 08:52:38;;;;;;;12.55;1.67;;;8.60;99.90;;;;;;5015739;28;37611;-62
2022/01/04 08:55:08;;;;;;;4.15;1.20;;;8.60;99.90;;;;;;5016227;28;36320;-62
2022/01/04 08:57:36;;;;;;;5.43;0.90;;;8.50;99.80;;;;;;5015608;28;37063;-62
2022/01/04 09:00:05;;;;;;;9.65;1.40;;;8.40;99.80;;;;;;5015954;28;37660;-62
2022/01/04 09:02:33;;;;;;;5.47;0.88;;;8.30;99.80;;;;;;5014605;28;37686;-62
2022/01/04 09:05:00;;;;;;;7.35;0.82;;;8.30;99.70;;;;;;5015723;28;37540;-62
2022/01/04 09:07:28;;;;;;;7.28;1.70;;;8.20;99.70;;;;;;5014993;28;36202;-62
2022/01/04 09:09:55;;;;;;;4.25;0.60;;;8.10;99.60;;;;;;5013463;28;36360;-62
2022/01/04 09:12:30;;;;;;;6.07;0.65;;;8.10;99.50;;;;;;5012391;28;37441;-62
2022/01/04 09:15:04;;;;;;;4.90;0.43;;;8.10;99.60;;;;;;5013074;28;38431;-59
2022/01/04 09:20:17;;;;;;;3.83;0.80;;;8.00;99.30;;;;;;5015374;28;39788;-59
2022/01/04 09:22:44;;;;;;;6.40;1.20;;;8.00;99.30;;;;;;5015012;28;37667;-59
2022/01/04 09:25:12;;;;;;;9.70;1.13;;;8.00;99.40;;;;;;5015173;28;36502;-59
2022/01/04 09:27:41;;;;;;;5.60;0.80;;;8.00;99.30;;;;;;5014916;28;40087;-59
2022/01/04 09:30:10;;;;;;;10.65;0.90;;;7.90;99.30;;;;;;5015754;28;37811;-59
2022/01/04 09:32:37;;;;;;;5.30;0.82;;;7.90;99.20;;;;;;5015318;28;36261;-59
2022/01/04 09:35:07;;;;;;;3.00;0.52;;;7.90;99.20;;;;;;5015507;28;38247;-59
2022/01/04 09:37:35;;;;;;;2.92;0.63;;;7.80;99.40;;;;;;5014057;28;37022;-59
2022/01/04 09:40:02;;;;;;;3.75;0.55;;;7.80;99.20;;;;;;5015779;28;36698;-59
2022/01/04 09:42:31;;;;;;;3.55;0.70;;;7.90;99.30;;;;;;5014931;28;37587;-59
2022/01/04 09:45:00;;;;;;;7.60;1.02;;;7.90;99.10;;;;;;5015272;28;37738;-59
2022/01/04 09:47:29;;;;;;;3.33;0.77;;;7.90;99.10;;;;;;5015381;28;37552;-59
2022/01/04 09:49:57;;;;;;;6.78;1.05;;;7.90;99.00;;;;;;5014812;28;35402;-59
2022/01/04 09:52:25;;;;;;;4.40;0.85;;;7.90;99.10;;;;;;5015112;28;37057;-59
2022/01/04 09:54:54;;;;;;;8.88;1.00;;;7.90;99.00;;;;;;5015404;28;37517;-59
2022/01/04 09:57:24;;;;;;;5.47;0.85;;;7.90;98.90;;;;;;5015527;28;37660;-59
2022/01/04 09:59:51;;;;;;;4.97;0.80;;;7.80;98.80;;;;;;5015176;28;37005;-59
2022/01/04 10:02:21;;;;;;;5.55;0.80;;;7.80;98.70;;;;;;5013282;28;36243;-59
2022/01/04 10:04:49;;;;;;;3.72;0.38;;;7.70;98.60;;;;;;5015059;28;39412;-59
2022/01/04 10:07:22;;;;;;;8.30;0.70;;;7.60;98.40;;;;;;5013094;28;36007;-59
2022/01/04 10:09:52;;;;;;;2.47;0.50;;;7.50;98.70;;;;;;5012711;28;36353;-59
2022/01/04 10:12:22;;;;;;;3.80;0.63;;;7.40;98.60;;;;;;5015500;28;37676;-59
2022/01/04 10:14:51;;;;;;;3.75;0.85;;;7.20;98.60;;;;;;5014656;28;37643;-59
2022/01/04 10:17:23;;;;;;;5.10;0.50;;;7.20;98.70;;;;;;5015287;28;37019;-59
2022/01/04 10:19:53;;;;;;;1.98;0.22;;;7.10;98.70;;;;;;5014051;28;35774;-59
2022/01/04 10:22:24;;;;;;;3.50;0.50;;;7.10;98.60;;;;;;5014427;28;38127;-59
2022/01/04 10:25:09;;;;;;;1.85;0.30;;;7.00;98.60;;;;;;5015195;28;37728;-59
2022/01/04 10:27:38;;;;;;;3.85;0.45;;;7.00;98.70;;;;;;5014754;28;37418;-59
2022/01/04 10:30:25;;;;;;;3.08;0.45;;;7.00;98.80;;;;;;5015336;28;35242;-59
2022/01/04 10:32:57;;;;;;;3.70;0.60;;;7.10;99.00;;;;;;5014450;28;36314;-59
2022/01/04 10:35:30;;;;;;;3.20;0.50;;;7.10;98.90;;;;;;5015013;28;38182;-59
2022/01/04 10:38:00;;;;;;;4.28;0.65;;;7.10;98.80;;;;;;5015147;28;37531;-59
2022/01/04 10:40:29;;;;;;;5.43;0.55;;;7.10;98.70;;;;;;5015125;28;37967;-59
2022/01/04 10:43:07;;;;;;;3.22;0.70;;;7.10;98.60;;;;;;5015739;28;38328;-59
2022/01/04 10:45:35;;;;;;;6.07;0.88;;;7.10;98.70;;;;;;5014419;28;37813;-59
2022/01/04 10:48:16;;;;;;;4.50;0.70;;;7.10;98.70;;;;;;5016220;28;37587;-59
2022/01/04 10:50:45;;;;;;;4.60;0.70;;;7.20;98.60;;;;;;5016534;28;37014;-59
2022/01/04 10:53:21;;;;;;;3.65;0.52;;;7.20;98.50;;;;;;5018211;28;37541;-59
2022/01/04 10:55:50;;;;;;;5.32;0.60;;;7.20;98.40;;;;;;5018279;28;37942;-59
2022/01/04 10:58:23;;;;;;;3.22;0.50;;;7.20;98.30;;;;;;5018270;28;37288;-59
2022/01/04 11:00:52;;;;;;;5.30;0.80;;;7.10;98.20;;;;;;5018756;28;35960;-59
2022/01/04 11:03:27;;;;;;;3.95;0.65;;;7.00;98.20;;;;;;5018120;28;36241;-60
2022/01/04 11:05:57;;;;;;;8.68;1.00;;;7.00;98.40;;;;;;5018015;28;36844;-60
2022/01/04 11:08:25;;;;;;;7.20;0.90;;;7.00;98.40;;;;;;5016454;28;37637;-60
2022/01/04 11:10:53;;;;;;;6.85;0.85;;;7.00;98.40;;;;;;5017055;28;36993;-60
2022/01/04 11:13:21;;;;;;;16.15;2.47;;;6.90;98.30;;;;;;5018057;28;37598;-60
2022/01/04 11:15:48;;;;;;;7.13;1.00;;;6.80;98.30;;;;;;5016899;28;36595;-59
2022/01/04 11:18:15;;;;;;;5.15;1.20;;;6.80;98.10;;;;;;5017080;28;37532;-60
2022/01/04 11:20:45;;;;;;;7.43;0.80;;;6.80;98.20;;;;;;5015069;28;37963;-59
2022/01/04 11:23:14;;;;;;;5.95;1.08;;;6.70;97.90;;;;;;5016241;28;37385;-60
2022/01/04 11:25:44;;;;;;;7.50;0.80;;;6.60;97.70;;;;;;5016856;28;36868;-60
2022/01/04 11:28:15;;;;;;;4.40;0.90;;;6.60;97.60;;;;;;5016647;28;37762;-60
2022/01/04 11:31:12;;;;;;;6.03;1.00;;;6.60;97.80;;;;;;5016305;28;35272;-60
2022/01/04 11:33:59;;;;;;;5.63;0.77;;;6.70;97.90;;;;;;5017116;28;37789;-60
2022/01/04 11:36:30;;;;;;;4.28;0.98;;;6.80;97.80;;;;;;5015558;28;39029;-60
2022/01/04 11:38:57;;;;;;;6.15;1.40;;;6.90;97.60;;;;;;5016892;28;37531;-60
2022/01/04 11:41:40;;;;;;;6.97;0.77;;;6.90;96.90;;;;;;5016223;28;35171;-60
2022/01/04 11:44:19;;;;;;;4.47;0.70;;;6.90;96.70;;;;;;5016618;28;38662;-60
2022/01/04 11:47:00;;;;;;;4.10;0.68;;;6.90;96.50;;;;;;5017128;28;38636;-60
2022/01/04 11:49:27;;;;;;;7.13;1.13;;;7.00;96.20;;;;;;5016569;28;37471;-60
2022/01/04 11:51:56;;;;;;;2.60;0.63;;;7.10;96.00;;;;;;5017387;28;35496;-60
2022/01/04 11:54:27;;;;;;;6.30;0.77;;;7.10;95.80;;;;;;5017124;28;36375;-60
2022/01/04 11:56:57;;;;;;;5.55;1.10;;;7.20;95.40;;;;;;5017415;28;38185;-60
2022/01/04 11:59:26;;;;;;;5.65;0.98;;;7.20;95.30;;;;;;5016594;28;37680;-60
2022/01/04 12:01:55;;;;;;;5.82;1.13;;;7.20;95.10;;;;;;5016076;28;35910;-60
2022/01/04 12:04:49;;;;;;;7.00;0.98;;;7.30;95.10;;;;;;5014053;28;38548;-60
2022/01/04 12:07:49;;;;;;;5.80;0.82;;;7.40;94.70;;;;;;5015203;28;39003;-60
2022/01/04 12:10:39;;;;;;;7.55;1.20;;;7.40;94.10;;;;;;4931959;28;37075;-60
2022/01/04 12:13:09;;;;;;;7.88;1.67;;;7.40;94.00;;;;;;5008826;28;36665;-60
2022/01/04 12:15:54;;;;;;;8.68;1.10;;;7.40;94.20;;;;;;5016045;28;37509;-60
2022/01/04 12:19:01;;;;;;;5.97;1.33;;;7.50;93.70;;;;;;5016799;28;37382;-60
2022/01/04 12:21:45;;;;;;;7.85;0.90;;;7.50;94.00;;;;;;5016069;28;37672;-60
2022/01/04 12:24:18;;;;;;;8.07;1.90;;;7.50;93.90;;;;;;5016912;28;38475;-59
2022/01/04 12:26:45;;;;;;;7.20;1.00;;;7.50;93.90;;;;;;5015937;28;37512;-59
2022/01/04 12:29:31;;;;;;;8.40;1.35;;;7.50;93.80;;;;;;5015558;28;37342;-60
2022/01/04 12:32:08;;;;;;;8.45;1.40;;;7.50;93.70;;;;;;5016490;28;37265;-59
2022/01/04 12:34:48;;;;;;;7.72;1.02;;;7.50;93.80;;;;;;5015531;28;37014;-59
2022/01/04 12:37:18;;;;;;;6.53;1.08;;;7.40;93.70;;;;;;5015854;28;38502;-59
2022/01/04 12:39:50;;;;;;;9.07;1.30;;;7.30;93.80;;;;;;5015946;28;38141;-59
2022/01/04 12:42:18;;;;;;;5.13;1.02;;;7.30;93.70;;;;;;5015937;28;38845;-59
2022/01/04 12:44:55;;;;;;;10.65;1.08;;;7.30;93.70;;;;;;5015047;28;36630;-59
2022/01/04 12:47:23;;;;;;;5.60;1.13;;;7.30;93.90;;;;;;5015141;28;38004;-59
2022/01/04 12:49:51;;;;;;;7.70;1.10;;;7.30;93.90;;;;;;5015749;28;38207;-59
2022/01/04 12:52:21;;;;;;;6.45;1.27;;;7.30;94.00;;;;;;5016003;28;37071;-59
2022/01/04 12:54:50;;;;;;;5.47;1.60;;;7.40;94.00;;;;;;5016655;28;34777;-59
2022/01/04 12:57:19;;;;;;;7.57;1.67;;;7.40;93.90;;;;;;5012541;28;39011;-59
2022/01/04 12:59:48;;;;;;;8.70;1.33;;;7.50;93.80;;;;;;5014134;28;39477;-59
2022/01/04 13:02:19;;;;;;;10.50;1.35;;;7.40;93.70;;;;;;5015420;28;37480;-59
2022/01/04 13:04:48;;;;;;;8.73;1.60;;;7.40;93.70;;;;;;5016043;28;36502;-59
2022/01/04 13:07:20;;;;;;;4.68;1.02;;;7.50;93.60;;;;;;5016468;28;38566;-59